Tropical Cyclones
[Index]
Main Index Home Page Stock Weather Photos Extreme Storms Discussion Storm News and Storm Chasing Reports Tropical Cyclones / Hurricanes / Typhoons Weather Data and Links Wild Fires / Bushfires Weather Observation Techniques Weather Picture Catalogue Tornado Pictures and Reports Stock Video Footage and DVDs for sale
Season 2002-2003 Tropical Cyclone JAPHET Track Map
Season 2002-2003 Summaries (Operational Data): [AU] [SIO] [SPAC] [SH]
<<- Previous TC | 2002-2003 Season | Next TC ->>

click for intensity scale information  Lat/long Grid: Show Hide

 Date Labels: Show Hide

Operational Tropical Cyclone Data : JTWC Advisories

Name: JAPHET
Number: 0319

25 Feb 2003 12:00 UTC to 03 Mar 2003 18:00 UTC

    date/time    lat    long     hPa   cat  kts
2003-02-25 12   22.1    43.0    1002         25          
2003-02-25 18   22.5    42.4    1001         25          
2003-02-26 00   22.3    41.0    1000         25          
2003-02-26 06   22.0    40.1     998         30          
2003-02-26 12   21.3    39.6     997         30          
2003-02-26 18   21.4    39.3     995    1    35          
2003-02-27 00   21.1    39.3     990    1    40          
2003-02-27 06   21.6    39.3     987    1    45          
2003-02-27 12   22.0    38.5     980    2    55          
2003-02-27 18   22.1    38.3     976    2    60          
2003-02-28 00   22.4    38.0     976    2    60          
2003-02-28 06   23.0    37.8     965    3    70          
2003-02-28 12   23.2    37.6     955    3    75          
2003-02-28 18   23.6    37.4     940    4    90          
2003-03-01 00   23.8    37.6     935    4    95          
2003-03-01 06   23.7    37.6     927    4   100          
2003-03-01 12   23.6    37.6     927    4   100          
2003-03-01 18   23.6    37.4     927    4   100          
2003-03-02 00   23.1    37.0     940    4    90          
2003-03-02 06   22.6    36.5     946    3    85          
2003-03-02 12   22.1    35.6     946    3    85          
2003-03-02 18   21.6    35.2     955    3    80          
2003-03-03 00   21.1    34.5     970    2    60          
2003-03-03 06   20.9    34.3     980    1    45          
2003-03-03 12   20.7    33.3            1    35          
2003-03-03 18   20.5    32.5                 25          
Winds are 10-min average.

Tropical cyclone tracks developed by Michael Bath using operational warnings and advisories and Google Maps.


[Australian Severe Weather index] [Copyright Notice] [Email Contacts] [Search This Site] [Privacy Policy]
Document: tropical_cyclone_japhet.htm Updated: 2 May 2017